createdAt,value
2023-08-18T06:32:06.165Z,9.10
2023-08-18T06:42:07.035Z,9.10
2023-08-18T06:52:06.983Z,8.60
2023-08-18T07:02:06.901Z,7.80
2023-08-18T07:12:06.869Z,8.10
2023-08-18T07:22:06.744Z,7.50
2023-08-18T07:32:06.680Z,6.50
2023-08-18T07:42:06.580Z,6.00
2023-08-18T07:52:06.499Z,6.10
2023-08-18T08:02:19.837Z,5.70
2023-08-18T08:12:06.323Z,5.30
2023-08-18T08:22:06.232Z,5.40
2023-08-18T08:32:10.164Z,4.90
2023-08-18T08:42:06.111Z,4.10
2023-08-18T08:52:06.013Z,4.10
2023-08-18T09:02:05.945Z,3.80
2023-08-18T09:12:05.850Z,4.10
2023-08-18T09:22:05.775Z,4.30
2023-08-18T09:32:05.822Z,4.60
2023-08-18T09:42:05.619Z,4.30
2023-08-18T09:52:05.560Z,4.10
2023-08-18T10:02:05.472Z,4.00
2023-08-18T10:12:05.386Z,4.60
2023-08-18T10:22:05.309Z,4.40
2023-08-18T10:32:05.246Z,4.20
2023-08-18T10:42:05.201Z,4.00
2023-08-18T10:52:05.094Z,4.00
2023-08-18T11:02:05.051Z,4.40
2023-08-18T11:12:04.947Z,4.50
2023-08-18T11:22:04.887Z,4.50
2023-08-18T11:32:04.888Z,4.30
2023-08-18T11:42:04.708Z,4.60
2023-08-18T11:52:04.667Z,4.90
2023-08-18T12:02:04.565Z,5.40
2023-08-18T12:12:04.475Z,5.10
2023-08-18T12:22:04.393Z,5.10
2023-08-18T12:32:04.349Z,5.50
2023-08-18T12:42:04.236Z,5.40
2023-08-18T12:52:04.172Z,5.10
2023-08-18T13:02:04.113Z,5.00
2023-08-18T13:12:04.019Z,5.40
2023-08-18T13:22:03.989Z,5.70
2023-08-18T13:32:03.862Z,5.30
2023-08-18T13:42:05.000Z,5.70
2023-08-18T13:52:03.735Z,5.60
2023-08-18T14:02:04.124Z,5.80
2023-08-18T14:12:03.661Z,5.50
2023-08-18T14:22:03.492Z,5.90
2023-08-18T14:32:03.480Z,5.90
2023-08-18T14:42:03.339Z,5.50
2023-08-18T14:52:03.252Z,6.00
2023-08-18T15:02:03.191Z,6.10
2023-08-18T15:12:03.099Z,6.40
2023-08-18T15:22:03.020Z,6.40
2023-08-18T15:32:02.947Z,6.00
2023-08-18T15:42:02.855Z,6.30
2023-08-18T15:52:02.855Z,6.10
2023-08-18T16:02:02.761Z,5.30
2023-08-18T16:12:02.742Z,6.00
2023-08-18T16:22:02.612Z,6.40
2023-08-18T16:32:02.540Z,6.60
2023-08-18T16:42:02.472Z,6.40
